Terminal Aerodrome Forecast
Issued by NWS

Home | Current Version | Previous Version | Text Only | Print | Product List | Glossary On
Versions: 1 2 3 4 5 6 7 8 9 10 11 12 13 14
000
FTUS46 KSEW 290541
TAFBFI
TAF
KBFI 290541Z 2906/3006 VRB03KT P6SM BKN100 OVC150
     FM291300 14008KT P6SM BKN060 OVC100
     FM291500 16010KT P6SM -RA BKN025 OVC040
     FM291800 20015G25KT P6SM -RA BKN025 OVC040
     FM292100 20015G25KT P6SM -SHRA SCT030 BKN040 OVC050
     FM300100 18010KT P6SM -RA BKN028 OVC040=

USA.gov is the U.S. government's official web portal to all federal, state and local government web resources and services.